Time;durP1;ratioP1;P1;durP2;ratioP2;P2;SDS_P1;SDS_P2;PMS_P1;PMS_P2;Temp;Humidity;BMP_temperature;BMP_pressure;BME280_temperature;BME280_humidity;BME280_pressure;Samples;Min_cycle;Max_cycle;Signal;HPM_P1;HPM_P2
2019/07/29 00:00:44;;;;;;;4.35;3.900001;;;;;;;17.07;100;94495.26;;;;
2019/07/29 00:01:47;;;;;;;4.35;3.900001;;;;;;;17.07;100;94495.26;;;;
2019/07/29 00:02:48;;;;;;;4.35;3.900001;;;;;;;17.07;100;94495.26;;;;
2019/07/29 00:03:49;;;;;;;4.2;3.8;;;;;;;17.01;100;94491.38;;;;
2019/07/29 00:04:50;;;;;;;4.2;3.8;;;;;;;17.01;100;94491.38;;;;
2019/07/29 00:05:51;;;;;;;4.2;3.8;;;;;;;17.01;100;94491.38;;;;
2019/07/29 00:06:52;;;;;;;4.2;3.8;;;;;;;17.01;100;94491.38;;;;
2019/07/29 00:07:53;;;;;;;4.2;3.8;;;;;;;17.01;100;94491.38;;;;
2019/07/29 00:08:55;;;;;;;4.2;3.8;;;;;;;17.01;100;94491.38;;;;
2019/07/29 00:09:56;;;;;;;4.2;3.8;;;;;;;17.01;100;94491.38;;;;
2019/07/29 00:10:57;;;;;;;4.2;3.8;;;;;;;17.01;100;94491.38;;;;
2019/07/29 00:11:58;;;;;;;4.2;3.8;;;;;;;17.01;100;94491.38;;;;
2019/07/29 00:12:59;;;;;;;4.2;3.8;;;;;;;17.01;100;94491.38;;;;
2019/07/29 00:14:00;;;;;;;6.099999;4.599999;;;;;;;16.91;100;94508.44;;;;
2019/07/29 00:15:02;;;;;;;6.099999;4.599999;;;;;;;16.91;100;94508.44;;;;
2019/07/29 00:16:03;;;;;;;6.099999;4.599999;;;;;;;16.91;100;94508.44;;;;
2019/07/29 00:17:04;;;;;;;6.099999;4.599999;;;;;;;16.91;100;94508.44;;;;
2019/07/29 00:18:05;;;;;;;6.099999;4.599999;;;;;;;16.91;100;94508.44;;;;
2019/07/29 00:19:10;;;;;;;6.099999;4.599999;;;;;;;16.91;100;94508.44;;;;
2019/07/29 00:20:12;;;;;;;6.099999;4.599999;;;;;;;16.91;100;94508.44;;;;
2019/07/29 00:21:13;;;;;;;6.099999;4.599999;;;;;;;16.91;100;94508.44;;;;
2019/07/29 00:22:14;;;;;;;6.099999;4.599999;;;;;;;16.91;100;94508.44;;;;
2019/07/29 00:23:15;;;;;;;6.099999;4.599999;;;;;;;16.91;100;94508.44;;;;
2019/07/29 00:24:16;;;;;;;8.200001;6.150001;;;;;;;16.89;100;94527.42;;;;
2019/07/29 00:25:17;;;;;;;8.200001;6.150001;;;;;;;16.89;100;94527.42;;;;
2019/07/29 00:26:19;;;;;;;8.200001;6.150001;;;;;;;16.89;100;94527.42;;;;
2019/07/29 00:27:20;;;;;;;8.200001;6.150001;;;;;;;16.89;100;94527.42;;;;
2019/07/29 00:28:21;;;;;;;8.200001;6.150001;;;;;;;16.89;100;94527.42;;;;
2019/07/29 00:29:22;;;;;;;8.200001;6.150001;;;;;;;16.89;100;94527.42;;;;
2019/07/29 00:30:23;;;;;;;8.200001;6.150001;;;;;;;16.89;100;94527.42;;;;
2019/07/29 00:31:25;;;;;;;8.200001;6.150001;;;;;;;16.89;100;94527.42;;;;
2019/07/29 00:32:26;;;;;;;8.200001;6.150001;;;;;;;16.89;100;94527.42;;;;
2019/07/29 00:33:27;;;;;;;8.200001;6.150001;;;;;;;16.89;100;94527.42;;;;
2019/07/29 00:34:28;;;;;;;8.200001;6.150001;;;;;;;16.89;100;94527.42;;;;
2019/07/29 00:35:29;;;;;;;6;5.4;;;;;;;16.82;100;94522.47;;;;
2019/07/29 00:36:30;;;;;;;6;5.4;;;;;;;16.82;100;94522.47;;;;
2019/07/29 00:37:31;;;;;;;6;5.4;;;;;;;16.82;100;94522.47;;;;
2019/07/29 00:38:32;;;;;;;6;5.4;;;;;;;16.82;100;94522.47;;;;
2019/07/29 00:39:33;;;;;;;6;5.4;;;;;;;16.82;100;94522.47;;;;
2019/07/29 00:40:34;;;;;;;6;5.4;;;;;;;16.82;100;94522.47;;;;
2019/07/29 00:41:45;;;;;;;6;5.4;;;;;;;16.82;100;94522.47;;;;
2019/07/29 00:42:46;;;;;;;6;5.4;;;;;;;16.82;100;94522.47;;;;
2019/07/29 00:43:47;;;;;;;6;5.4;;;;;;;16.82;100;94522.47;;;;
2019/07/29 00:44:48;;;;;;;6;5.4;;;;;;;16.82;100;94522.47;;;;
2019/07/29 00:45:49;;;;;;;6.9;5.65;;;;;;;16.78;100;94530.02;;;;
2019/07/29 00:46:51;;;;;;;6.9;5.65;;;;;;;16.78;100;94530.02;;;;
2019/07/29 00:47:52;;;;;;;6.9;5.65;;;;;;;16.78;100;94530.02;;;;
2019/07/29 00:48:53;;;;;;;6.9;5.65;;;;;;;16.78;100;94530.02;;;;
2019/07/29 00:49:55;;;;;;;6.9;5.65;;;;;;;16.78;100;94530.02;;;;
2019/07/29 00:50:56;;;;;;;6.9;5.65;;;;;;;16.78;100;94530.02;;;;
2019/07/29 00:51:57;;;;;;;6.9;5.65;;;;;;;16.78;100;94530.02;;;;
2019/07/29 00:52:58;;;;;;;6.9;5.65;;;;;;;16.78;100;94530.02;;;;
2019/07/29 00:53:59;;;;;;;6.9;5.65;;;;;;;16.78;100;94530.02;;;;
2019/07/29 00:55:00;;;;;;;6.9;5.65;;;;;;;16.78;100;94530.02;;;;
2019/07/29 00:56:01;;;;;;;6.9;5.65;;;;;;;16.78;100;94530.02;;;;
2019/07/29 00:57:02;;;;;;;6.15;5.5;;;;;;;16.67;100;94546.11;;;;
2019/07/29 00:58:03;;;;;;;6.15;5.5;;;;;;;16.67;100;94546.11;;;;
2019/07/29 00:59:05;;;;;;;6.15;5.5;;;;;;;16.67;100;94546.11;;;;
2019/07/29 01:00:06;;;;;;;6.15;5.5;;;;;;;16.67;100;94546.11;;;;
2019/07/29 01:01:07;;;;;;;6.15;5.5;;;;;;;16.67;100;94546.11;;;;
2019/07/29 01:02:08;;;;;;;6.15;5.5;;;;;;;16.67;100;94546.11;;;;
2019/07/29 01:03:09;;;;;;;6.15;5.5;;;;;;;16.67;100;94546.11;;;;
2019/07/29 01:04:11;;;;;;;6.15;5.5;;;;;;;16.67;100;94546.11;;;;
2019/07/29 01:05:12;;;;;;;6.15;5.5;;;;;;;16.67;100;94546.11;;;;
2019/07/29 01:06:13;;;;;;;6.15;5.5;;;;;;;16.67;100;94546.11;;;;
2019/07/29 01:07:15;;;;;;;6.75;6.099999;;;;;;;16.63;100;94546.01;;;;
2019/07/29 01:08:16;;;;;;;6.75;6.099999;;;;;;;16.63;100;94546.01;;;;
2019/07/29 01:09:17;;;;;;;6.75;6.099999;;;;;;;16.63;100;94546.01;;;;
2019/07/29 01:10:19;;;;;;;6.75;6.099999;;;;;;;16.63;100;94546.01;;;;
2019/07/29 01:11:20;;;;;;;6.75;6.099999;;;;;;;16.63;100;94546.01;;;;
2019/07/29 01:12:21;;;;;;;6.75;6.099999;;;;;;;16.63;100;94546.01;;;;
2019/07/29 01:13:22;;;;;;;6.75;6.099999;;;;;;;16.63;100;94546.01;;;;
2019/07/29 01:14:24;;;;;;;6.75;6.099999;;;;;;;16.63;100;94546.01;;;;
2019/07/29 01:15:25;;;;;;;6.75;6.099999;;;;;;;16.63;100;94546.01;;;;
2019/07/29 01:16:26;;;;;;;6.75;6.099999;;;;;;;16.63;100;94546.01;;;;
2019/07/29 01:17:28;;;;;;;6.55;5.95;;;;;;;16.54;100;94544.2;;;;
2019/07/29 01:18:29;;;;;;;6.55;5.95;;;;;;;16.54;100;94544.2;;;;
2019/07/29 01:19:30;;;;;;;6.55;5.95;;;;;;;16.54;100;94544.2;;;;
2019/07/29 01:20:31;;;;;;;6.55;5.95;;;;;;;16.54;100;94544.2;;;;
2019/07/29 01:21:33;;;;;;;6.55;5.95;;;;;;;16.54;100;94544.2;;;;
2019/07/29 01:22:34;;;;;;;6.55;5.95;;;;;;;16.54;100;94544.2;;;;
2019/07/29 01:23:35;;;;;;;6.55;5.95;;;;;;;16.54;100;94544.2;;;;
2019/07/29 01:24:36;;;;;;;6.55;5.95;;;;;;;16.54;100;94544.2;;;;
2019/07/29 01:25:37;;;;;;;6.55;5.95;;;;;;;16.54;100;94544.2;;;;
2019/07/29 01:26:39;;;;;;;6.55;5.95;;;;;;;16.54;100;94544.2;;;;
2019/07/29 01:27:40;;;;;;;6.55;5.95;;;;;;;16.54;100;94544.2;;;;
2019/07/29 01:28:41;;;;;;;7.65;6.900001;;;;;;;16.51;100;94535.67;;;;
2019/07/29 01:29:42;;;;;;;7.65;6.900001;;;;;;;16.51;100;94535.67;;;;
2019/07/29 01:30:43;;;;;;;7.65;6.900001;;;;;;;16.51;100;94535.67;;;;
2019/07/29 01:31:45;;;;;;;7.65;6.900001;;;;;;;16.51;100;94535.67;;;;
2019/07/29 01:32:46;;;;;;;7.65;6.900001;;;;;;;16.51;100;94535.67;;;;
2019/07/29 01:33:47;;;;;;;7.65;6.900001;;;;;;;16.51;100;94535.67;;;;
2019/07/29 01:34:48;;;;;;;7.65;6.900001;;;;;;;16.51;100;94535.67;;;;
2019/07/29 01:35:49;;;;;;;7.65;6.900001;;;;;;;16.51;100;94535.67;;;;
2019/07/29 01:36:50;;;;;;;7.65;6.900001;;;;;;;16.51;100;94535.67;;;;
2019/07/29 01:37:51;;;;;;;7.65;6.900001;;;;;;;16.51;100;94535.67;;;;
2019/07/29 01:38:53;;;;;;;6.7;6.1;;;;;;;16.4;100;94550.48;;;;
2019/07/29 01:39:54;;;;;;;6.7;6.1;;;;;;;16.4;100;94550.48;;;;
2019/07/29 01:40:55;;;;;;;6.7;6.1;;;;;;;16.4;100;94550.48;;;;
2019/07/29 01:41:56;;;;;;;6.7;6.1;;;;;;;16.4;100;94550.48;;;;
2019/07/29 01:42:58;;;;;;;6.7;6.1;;;;;;;16.4;100;94550.48;;;;
2019/07/29 01:43:59;;;;;;;6.7;6.1;;;;;;;16.4;100;94550.48;;;;
2019/07/29 01:45:00;;;;;;;6.7;6.1;;;;;;;16.4;100;94550.48;;;;
2019/07/29 01:46:01;;;;;;;6.7;6.1;;;;;;;16.4;100;94550.48;;;;
2019/07/29 01:47:03;;;;;;;6.7;6.1;;;;;;;16.4;100;94550.48;;;;
2019/07/29 01:48:04;;;;;;;6.7;6.1;;;;;;;16.4;100;94550.48;;;;
2019/07/29 01:49:05;;;;;;;6.7;6.1;;;;;;;16.4;100;94550.48;;;;
2019/07/29 01:50:07;;;;;;;8.4;7.550001;;;;;;;16.32;100;94563.36;;;;
2019/07/29 01:51:09;;;;;;;8.4;7.550001;;;;;;;16.32;100;94563.36;;;;
2019/07/29 01:52:10;;;;;;;8.4;7.550001;;;;;;;16.32;100;94563.36;;;;
2019/07/29 01:53:11;;;;;;;8.4;7.550001;;;;;;;16.32;100;94563.36;;;;
2019/07/29 01:54:12;;;;;;;8.4;7.550001;;;;;;;16.32;100;94563.36;;;;
2019/07/29 01:55:13;;;;;;;8.4;7.550001;;;;;;;16.32;100;94563.36;;;;
2019/07/29 01:56:15;;;;;;;8.4;7.550001;;;;;;;16.32;100;94563.36;;;;
2019/07/29 01:57:16;;;;;;;8.4;7.550001;;;;;;;16.32;100;94563.36;;;;
2019/07/29 01:58:17;;;;;;;8.4;7.550001;;;;;;;16.32;100;94563.36;;;;
2019/07/29 01:59:19;;;;;;;8.4;7.550001;;;;;;;16.32;100;94563.36;;;;
2019/07/29 02:00:20;;;;;;;7.65;7.05;;;;;;;16.19;100;94556.68;;;;
2019/07/29 02:01:41;;;;;;;7.65;7.05;;;;;;;16.19;100;94556.68;;;;
2019/07/29 02:02:43;;;;;;;7.65;7.05;;;;;;;16.19;100;94556.68;;;;
2019/07/29 02:03:44;;;;;;;7.65;7.05;;;;;;;16.19;100;94556.68;;;;
2019/07/29 02:04:45;;;;;;;7.65;7.05;;;;;;;16.19;100;94556.68;;;;
2019/07/29 02:05:46;;;;;;;7.65;7.05;;;;;;;16.19;100;94556.68;;;;
2019/07/29 02:06:47;;;;;;;7.65;7.05;;;;;;;16.19;100;94556.68;;;;
2019/07/29 02:07:48;;;;;;;7.65;7.05;;;;;;;16.19;100;94556.68;;;;
2019/07/29 02:08:49;;;;;;;7.65;7.05;;;;;;;16.19;100;94556.68;;;;
2019/07/29 02:09:51;;;;;;;7.65;7.05;;;;;;;16.19;100;94556.68;;;;
2019/07/29 02:10:52;;;;;;;8.849999;8.049999;;;;;;;16.15;100;94559.33;;;;
2019/07/29 02:11:53;;;;;;;8.849999;8.049999;;;;;;;16.15;100;94559.33;;;;
2019/07/29 02:12:54;;;;;;;8.849999;8.049999;;;;;;;16.15;100;94559.33;;;;
2019/07/29 02:13:56;;;;;;;8.849999;8.049999;;;;;;;16.15;100;94559.33;;;;
2019/07/29 02:14:57;;;;;;;8.849999;8.049999;;;;;;;16.15;100;94559.33;;;;
2019/07/29 02:15:58;;;;;;;8.849999;8.049999;;;;;;;16.15;100;94559.33;;;;
2019/07/29 02:16:59;;;;;;;8.849999;8.049999;;;;;;;16.15;100;94559.33;;;;
2019/07/29 02:18:00;;;;;;;8.849999;8.049999;;;;;;;16.15;100;94559.33;;;;
2019/07/29 02:19:02;;;;;;;8.849999;8.049999;;;;;;;16.15;100;94559.33;;;;
2019/07/29 02:20:03;;;;;;;8.849999;8.049999;;;;;;;16.15;100;94559.33;;;;
2019/07/29 02:21:05;;;;;;;10.6;9.6;;;;;;;16.06;100;94562.01;;;;
2019/07/29 02:22:06;;;;;;;10.6;9.6;;;;;;;16.06;100;94562.01;;;;
2019/07/29 02:23:08;;;;;;;10.6;9.6;;;;;;;16.06;100;94562.01;;;;
2019/07/29 02:24:09;;;;;;;10.6;9.6;;;;;;;16.06;100;94562.01;;;;
2019/07/29 02:25:10;;;;;;;10.6;9.6;;;;;;;16.06;100;94562.01;;;;
2019/07/29 02:26:11;;;;;;;10.6;9.6;;;;;;;16.06;100;94562.01;;;;
2019/07/29 02:27:13;;;;;;;10.6;9.6;;;;;;;16.06;100;94562.01;;;;
2019/07/29 02:28:14;;;;;;;10.6;9.6;;;;;;;16.06;100;94562.01;;;;
2019/07/29 02:29:15;;;;;;;10.6;9.6;;;;;;;16.06;100;94562.01;;;;
2019/07/29 02:30:16;;;;;;;10.6;9.6;;;;;;;16.06;100;94562.01;;;;
2019/07/29 02:31:36;;;;;;;8.299999;7.500001;;;;;;;16.01;100;94576.87;;;;
2019/07/29 02:32:38;;;;;;;8.299999;7.500001;;;;;;;16.01;100;94576.87;;;;
2019/07/29 02:33:39;;;;;;;8.299999;7.500001;;;;;;;16.01;100;94576.87;;;;
2019/07/29 02:34:40;;;;;;;8.299999;7.500001;;;;;;;16.01;100;94576.87;;;;
2019/07/29 02:35:41;;;;;;;8.299999;7.500001;;;;;;;16.01;100;94576.87;;;;
2019/07/29 02:36:43;;;;;;;8.299999;7.500001;;;;;;;16.01;100;94576.87;;;;
2019/07/29 02:37:44;;;;;;;8.299999;7.500001;;;;;;;16.01;100;94576.87;;;;
2019/07/29 02:38:45;;;;;;;8.299999;7.500001;;;;;;;16.01;100;94576.87;;;;
2019/07/29 02:39:46;;;;;;;8.299999;7.500001;;;;;;;16.01;100;94576.87;;;;
2019/07/29 02:40:47;;;;;;;8.299999;7.500001;;;;;;;16.01;100;94576.87;;;;
2019/07/29 02:41:49;;;;;;;8.299999;7.500001;;;;;;;16.01;100;94576.87;;;;
2019/07/29 02:42:50;;;;;;;9.250001;8.299999;;;;;;;15.92;100;94573.32;;;;
2019/07/29 02:43:51;;;;;;;9.250001;8.299999;;;;;;;15.92;100;94573.32;;;;
2019/07/29 02:44:53;;;;;;;9.250001;8.299999;;;;;;;15.92;100;94573.32;;;;
2019/07/29 02:45:54;;;;;;;9.250001;8.299999;;;;;;;15.92;100;94573.32;;;;
2019/07/29 02:46:55;;;;;;;9.250001;8.299999;;;;;;;15.92;100;94573.32;;;;
2019/07/29 02:47:56;;;;;;;9.250001;8.299999;;;;;;;15.92;100;94573.32;;;;
2019/07/29 02:48:57;;;;;;;9.250001;8.299999;;;;;;;15.92;100;94573.32;;;;
2019/07/29 02:49:58;;;;;;;9.250001;8.299999;;;;;;;15.92;100;94573.32;;;;
2019/07/29 02:50:59;;;;;;;9.250001;8.299999;;;;;;;15.92;100;94573.32;;;;
2019/07/29 02:52:00;;;;;;;9.250001;8.299999;;;;;;;15.92;100;94573.32;;;;
2019/07/29 02:53:02;;;;;;;9.75;8.75;;;;;;;15.89;100;94577.95;;;;
2019/07/29 02:54:03;;;;;;;9.75;8.75;;;;;;;15.89;100;94577.95;;;;
2019/07/29 02:55:04;;;;;;;9.75;8.75;;;;;;;15.89;100;94577.95;;;;
2019/07/29 02:56:06;;;;;;;9.75;8.75;;;;;;;15.89;100;94577.95;;;;
2019/07/29 02:57:07;;;;;;;9.75;8.75;;;;;;;15.89;100;94577.95;;;;
2019/07/29 02:58:08;;;;;;;9.75;8.75;;;;;;;15.89;100;94577.95;;;;
2019/07/29 02:59:09;;;;;;;9.75;8.75;;;;;;;15.89;100;94577.95;;;;
2019/07/29 03:00:10;;;;;;;9.75;8.75;;;;;;;15.89;100;94577.95;;;;
2019/07/29 03:01:16;;;;;;;9.75;8.75;;;;;;;15.89;100;94577.95;;;;
2019/07/29 03:02:24;;;;;;;9.75;8.75;;;;;;;15.89;100;94577.95;;;;
2019/07/29 03:03:25;;;;;;;10.75;9.7;;;;;;;15.81;100;94590.29;;;;
2019/07/29 03:04:27;;;;;;;10.75;9.7;;;;;;;15.81;100;94590.29;;;;
2019/07/29 03:05:28;;;;;;;10.75;9.7;;;;;;;15.81;100;94590.29;;;;
2019/07/29 03:06:29;;;;;;;10.75;9.7;;;;;;;15.81;100;94590.29;;;;
2019/07/29 03:07:30;;;;;;;10.75;9.7;;;;;;;15.81;100;94590.29;;;;
2019/07/29 03:08:31;;;;;;;10.75;9.7;;;;;;;15.81;100;94590.29;;;;
2019/07/29 03:09:32;;;;;;;10.75;9.7;;;;;;;15.81;100;94590.29;;;;
2019/07/29 03:10:33;;;;;;;10.75;9.7;;;;;;;15.81;100;94590.29;;;;
2019/07/29 03:11:34;;;;;;;10.75;9.7;;;;;;;15.81;100;94590.29;;;;
2019/07/29 03:12:36;;;;;;;10.75;9.7;;;;;;;15.81;100;94590.29;;;;
2019/07/29 03:13:37;;;;;;;10.75;9.7;;;;;;;15.81;100;94590.29;;;;
2019/07/29 03:14:38;;;;;;;10.65;9.549999;;;;;;;15.8;100;94585.52;;;;
2019/07/29 03:15:39;;;;;;;10.65;9.549999;;;;;;;15.8;100;94585.52;;;;
2019/07/29 03:16:40;;;;;;;10.65;9.549999;;;;;;;15.8;100;94585.52;;;;
2019/07/29 03:17:41;;;;;;;10.65;9.549999;;;;;;;15.8;100;94585.52;;;;
2019/07/29 03:18:42;;;;;;;10.65;9.549999;;;;;;;15.8;100;94585.52;;;;
2019/07/29 03:19:43;;;;;;;10.65;9.549999;;;;;;;15.8;100;94585.52;;;;
2019/07/29 03:20:44;;;;;;;10.65;9.549999;;;;;;;15.8;100;94585.52;;;;
2019/07/29 03:21:45;;;;;;;10.65;9.549999;;;;;;;15.8;100;94585.52;;;;
2019/07/29 03:22:46;;;;;;;10.65;9.549999;;;;;;;15.8;100;94585.52;;;;
2019/07/29 03:23:48;;;;;;;10.65;9.549999;;;;;;;15.8;100;94585.52;;;;
2019/07/29 03:24:49;;;;;;;12.35;10.85;;;;;;;15.71;100;94601.23;;;;
2019/07/29 03:25:50;;;;;;;12.35;10.85;;;;;;;15.71;100;94601.23;;;;
2019/07/29 03:26:51;;;;;;;12.35;10.85;;;;;;;15.71;100;94601.23;;;;
2019/07/29 03:27:52;;;;;;;12.35;10.85;;;;;;;15.71;100;94601.23;;;;
2019/07/29 03:28:53;;;;;;;12.35;10.85;;;;;;;15.71;100;94601.23;;;;
2019/07/29 03:29:54;;;;;;;12.35;10.85;;;;;;;15.71;100;94601.23;;;;
2019/07/29 03:30:55;;;;;;;12.35;10.85;;;;;;;15.71;100;94601.23;;;;
2019/07/29 03:31:57;;;;;;;12.35;10.85;;;;;;;15.71;100;94601.23;;;;
2019/07/29 03:32:59;;;;;;;12.35;10.85;;;;;;;15.71;100;94601.23;;;;
2019/07/29 03:34:00;;;;;;;12.35;10.85;;;;;;;15.71;100;94601.23;;;;
2019/07/29 03:35:01;;;;;;;12.35;10.85;;;;;;;15.71;100;94601.23;;;;
2019/07/29 03:36:02;;;;;;;11.35;10.15;;;;;;;15.72;100;94610.64;;;;
2019/07/29 03:37:04;;;;;;;11.35;10.15;;;;;;;15.72;100;94610.64;;;;
2019/07/29 03:38:05;;;;;;;11.35;10.15;;;;;;;15.72;100;94610.64;;;;
2019/07/29 03:39:06;;;;;;;11.35;10.15;;;;;;;15.72;100;94610.64;;;;
2019/07/29 03:40:07;;;;;;;11.35;10.15;;;;;;;15.72;100;94610.64;;;;
2019/07/29 03:41:08;;;;;;;11.35;10.15;;;;;;;15.72;100;94610.64;;;;
2019/07/29 03:42:10;;;;;;;11.35;10.15;;;;;;;15.72;100;94610.64;;;;
2019/07/29 03:43:11;;;;;;;11.35;10.15;;;;;;;15.72;100;94610.64;;;;
2019/07/29 03:44:12;;;;;;;11.35;10.15;;;;;;;15.72;100;94610.64;;;;
2019/07/29 03:45:13;;;;;;;11.35;10.15;;;;;;;15.72;100;94610.64;;;;
2019/07/29 03:46:15;;;;;;;14.05;12;;;;;;;15.66;100;94623.05;;;;
2019/07/29 03:47:16;;;;;;;14.05;12;;;;;;;15.66;100;94623.05;;;;
2019/07/29 03:48:17;;;;;;;14.05;12;;;;;;;15.66;100;94623.05;;;;
2019/07/29 03:49:18;;;;;;;14.05;12;;;;;;;15.66;100;94623.05;;;;
2019/07/29 03:50:19;;;;;;;14.05;12;;;;;;;15.66;100;94623.05;;;;
2019/07/29 03:51:20;;;;;;;14.05;12;;;;;;;15.66;100;94623.05;;;;
2019/07/29 03:52:21;;;;;;;14.05;12;;;;;;;15.66;100;94623.05;;;;
2019/07/29 03:53:22;;;;;;;14.05;12;;;;;;;15.66;100;94623.05;;;;
2019/07/29 03:54:23;;;;;;;14.05;12;;;;;;;15.66;100;94623.05;;;;
2019/07/29 03:55:24;;;;;;;14.05;12;;;;;;;15.66;100;94623.05;;;;
2019/07/29 03:56:26;;;;;;;14.05;12;;;;;;;15.66;100;94623.05;;;;
2019/07/29 03:57:27;;;;;;;14.75;12.2;;;;;;;15.66;100;94624.01;;;;
2019/07/29 03:58:28;;;;;;;14.75;12.2;;;;;;;15.66;100;94624.01;;;;
2019/07/29 03:59:29;;;;;;;14.75;12.2;;;;;;;15.66;100;94624.01;;;;
2019/07/29 04:00:30;;;;;;;14.75;12.2;;;;;;;15.66;100;94624.01;;;;
2019/07/29 04:01:40;;;;;;;14.75;12.2;;;;;;;15.66;100;94624.01;;;;
2019/07/29 04:02:41;;;;;;;14.75;12.2;;;;;;;15.66;100;94624.01;;;;
2019/07/29 04:03:42;;;;;;;14.75;12.2;;;;;;;15.66;100;94624.01;;;;
2019/07/29 04:04:44;;;;;;;14.75;12.2;;;;;;;15.66;100;94624.01;;;;
2019/07/29 04:05:45;;;;;;;14.75;12.2;;;;;;;15.66;100;94624.01;;;;
2019/07/29 04:06:47;;;;;;;14.75;12.2;;;;;;;15.66;100;94624.01;;;;
2019/07/29 04:07:48;;;;;;;14.65;12.95;;;;;;;15.58;100;94638.23;;;;
2019/07/29 04:08:49;;;;;;;14.65;12.95;;;;;;;15.58;100;94638.23;;;;
2019/07/29 04:09:50;;;;;;;14.65;12.95;;;;;;;15.58;100;94638.23;;;;
2019/07/29 04:10:51;;;;;;;14.65;12.95;;;;;;;15.58;100;94638.23;;;;
2019/07/29 04:11:53;;;;;;;14.65;12.95;;;;;;;15.58;100;94638.23;;;;
2019/07/29 04:12:54;;;;;;;14.65;12.95;;;;;;;15.58;100;94638.23;;;;
2019/07/29 04:13:55;;;;;;;14.65;12.95;;;;;;;15.58;100;94638.23;;;;
2019/07/29 04:14:56;;;;;;;14.65;12.95;;;;;;;15.58;100;94638.23;;;;
2019/07/29 04:15:57;;;;;;;14.65;12.95;;;;;;;15.58;100;94638.23;;;;
2019/07/29 04:16:58;;;;;;;14.65;12.95;;;;;;;15.58;100;94638.23;;;;
2019/07/29 04:17:59;;;;;;;17.25;13.2;;;;;;;15.56;100;94639.06;;;;
2019/07/29 04:19:00;;;;;;;17.25;13.2;;;;;;;15.56;100;94639.06;;;;
2019/07/29 04:20:02;;;;;;;17.25;13.2;;;;;;;15.56;100;94639.06;;;;
2019/07/29 04:21:03;;;;;;;17.25;13.2;;;;;;;15.56;100;94639.06;;;;
2019/07/29 04:22:04;;;;;;;17.25;13.2;;;;;;;15.56;100;94639.06;;;;
2019/07/29 04:23:05;;;;;;;17.25;13.2;;;;;;;15.56;100;94639.06;;;;
2019/07/29 04:24:07;;;;;;;17.25;13.2;;;;;;;15.56;100;94639.06;;;;
2019/07/29 04:25:08;;;;;;;17.25;13.2;;;;;;;15.56;100;94639.06;;;;
2019/07/29 04:26:10;;;;;;;17.25;13.2;;;;;;;15.56;100;94639.06;;;;
2019/07/29 04:27:11;;;;;;;17.25;13.2;;;;;;;15.56;100;94639.06;;;;
2019/07/29 04:28:12;;;;;;;17.25;13.2;;;;;;;15.56;100;94639.06;;;;
2019/07/29 04:29:13;;;;;;;18.7;14.2;;;;;;;15.45;100;94651.92;;;;
2019/07/29 04:30:14;;;;;;;18.7;14.2;;;;;;;15.45;100;94651.92;;;;
2019/07/29 04:31:26;;;;;;;18.7;14.2;;;;;;;15.45;100;94651.92;;;;
2019/07/29 04:32:27;;;;;;;18.7;14.2;;;;;;;15.45;100;94651.92;;;;
2019/07/29 04:33:28;;;;;;;18.7;14.2;;;;;;;15.45;100;94651.92;;;;
2019/07/29 04:34:29;;;;;;;18.7;14.2;;;;;;;15.45;100;94651.92;;;;
2019/07/29 04:35:30;;;;;;;18.7;14.2;;;;;;;15.45;100;94651.92;;;;
2019/07/29 04:36:31;;;;;;;18.7;14.2;;;;;;;15.45;100;94651.92;;;;
2019/07/29 04:37:32;;;;;;;18.7;14.2;;;;;;;15.45;100;94651.92;;;;
2019/07/29 04:38:33;;;;;;;18.7;14.2;;;;;;;15.45;100;94651.92;;;;
2019/07/29 04:39:34;;;;;;;15.6;13.4;;;;;;;15.46;100;94651.76;;;;
2019/07/29 04:40:36;;;;;;;15.6;13.4;;;;;;;15.46;100;94651.76;;;;
2019/07/29 04:41:37;;;;;;;15.6;13.4;;;;;;;15.46;100;94651.76;;;;
2019/07/29 04:42:38;;;;;;;15.6;13.4;;;;;;;15.46;100;94651.76;;;;
2019/07/29 04:43:39;;;;;;;15.6;13.4;;;;;;;15.46;100;94651.76;;;;
2019/07/29 04:44:40;;;;;;;15.6;13.4;;;;;;;15.46;100;94651.76;;;;
2019/07/29 04:45:42;;;;;;;15.6;13.4;;;;;;;15.46;100;94651.76;;;;
2019/07/29 04:46:43;;;;;;;15.6;13.4;;;;;;;15.46;100;94651.76;;;;
2019/07/29 04:47:44;;;;;;;15.6;13.4;;;;;;;15.46;100;94651.76;;;;
2019/07/29 04:48:45;;;;;;;15.6;13.4;;;;;;;15.46;100;94651.76;;;;
2019/07/29 04:49:46;;;;;;;14.55;12.65;;;;;;;15.4;100;94667.42;;;;
2019/07/29 04:50:47;;;;;;;14.55;12.65;;;;;;;15.4;100;94667.42;;;;
2019/07/29 04:51:48;;;;;;;14.55;12.65;;;;;;;15.4;100;94667.42;;;;
2019/07/29 04:52:49;;;;;;;14.55;12.65;;;;;;;15.4;100;94667.42;;;;
2019/07/29 04:53:51;;;;;;;14.55;12.65;;;;;;;15.4;100;94667.42;;;;
2019/07/29 04:54:52;;;;;;;14.55;12.65;;;;;;;15.4;100;94667.42;;;;
2019/07/29 04:55:53;;;;;;;14.55;12.65;;;;;;;15.4;100;94667.42;;;;
2019/07/29 04:56:54;;;;;;;14.55;12.65;;;;;;;15.4;100;94667.42;;;;
2019/07/29 04:57:55;;;;;;;14.55;12.65;;;;;;;15.4;100;94667.42;;;;
2019/07/29 04:58:57;;;;;;;14.55;12.65;;;;;;;15.4;100;94667.42;;;;
2019/07/29 04:59:58;;;;;;;14.55;12.65;;;;;;;15.4;100;94667.42;;;;
2019/07/29 05:00:59;;;;;;;12.5;10.95;;;;;;;15.43;100;94684.98;;;;
2019/07/29 05:02:00;;;;;;;12.5;10.95;;;;;;;15.43;100;94684.98;;;;
2019/07/29 05:03:01;;;;;;;12.5;10.95;;;;;;;15.43;100;94684.98;;;;
2019/07/29 05:04:03;;;;;;;12.5;10.95;;;;;;;15.43;100;94684.98;;;;
2019/07/29 05:05:04;;;;;;;12.5;10.95;;;;;;;15.43;100;94684.98;;;;
2019/07/29 05:06:05;;;;;;;12.5;10.95;;;;;;;15.43;100;94684.98;;;;
2019/07/29 05:07:06;;;;;;;12.5;10.95;;;;;;;15.43;100;94684.98;;;;
2019/07/29 05:08:08;;;;;;;12.5;10.95;;;;;;;15.43;100;94684.98;;;;
2019/07/29 05:09:10;;;;;;;12.5;10.95;;;;;;;15.43;100;94684.98;;;;
2019/07/29 05:10:11;;;;;;;12.5;10.95;;;;;;;15.43;100;94684.98;;;;
2019/07/29 05:11:13;;;;;;;10.5;9.399999;;;;;;;15.48;100;94698.14;;;;
2019/07/29 05:12:14;;;;;;;10.5;9.399999;;;;;;;15.48;100;94698.14;;;;
2019/07/29 05:13:15;;;;;;;10.5;9.399999;;;;;;;15.48;100;94698.14;;;;
2019/07/29 05:14:17;;;;;;;10.5;9.399999;;;;;;;15.48;100;94698.14;;;;
2019/07/29 05:15:18;;;;;;;10.5;9.399999;;;;;;;15.48;100;94698.14;;;;
2019/07/29 05:16:20;;;;;;;10.5;9.399999;;;;;;;15.48;100;94698.14;;;;
2019/07/29 05:17:21;;;;;;;10.5;9.399999;;;;;;;15.48;100;94698.14;;;;
2019/07/29 05:18:22;;;;;;;10.5;9.399999;;;;;;;15.48;100;94698.14;;;;
2019/07/29 05:19:23;;;;;;;10.5;9.399999;;;;;;;15.48;100;94698.14;;;;
2019/07/29 05:20:24;;;;;;;10.5;9.399999;;;;;;;15.48;100;94698.14;;;;
2019/07/29 05:21:25;;;;;;;11.15;10;;;;;;;15.56;100;94709.81;;;;
2019/07/29 05:22:27;;;;;;;11.15;10;;;;;;;15.56;100;94709.81;;;;
2019/07/29 05:23:28;;;;;;;11.15;10;;;;;;;15.56;100;94709.81;;;;
2019/07/29 05:24:29;;;;;;;11.15;10;;;;;;;15.56;100;94709.81;;;;
2019/07/29 05:25:30;;;;;;;11.15;10;;;;;;;15.56;100;94709.81;;;;
2019/07/29 05:26:31;;;;;;;11.15;10;;;;;;;15.56;100;94709.81;;;;
2019/07/29 05:27:32;;;;;;;11.15;10;;;;;;;15.56;100;94709.81;;;;
2019/07/29 05:28:33;;;;;;;11.15;10;;;;;;;15.56;100;94709.81;;;;
2019/07/29 05:29:34;;;;;;;11.15;10;;;;;;;15.56;100;94709.81;;;;
2019/07/29 05:30:35;;;;;;;11.15;10;;;;;;;15.56;100;94709.81;;;;
2019/07/29 05:31:50;;;;;;;11.15;10;;;;;;;15.56;100;94709.81;;;;
2019/07/29 05:32:51;;;;;;;10.3;9.3;;;;;;;15.55;100;94727.62;;;;
2019/07/29 05:33:52;;;;;;;10.3;9.3;;;;;;;15.55;100;94727.62;;;;
2019/07/29 05:34:53;;;;;;;10.3;9.3;;;;;;;15.55;100;94727.62;;;;
2019/07/29 05:35:54;;;;;;;10.3;9.3;;;;;;;15.55;100;94727.62;;;;
2019/07/29 05:36:55;;;;;;;10.3;9.3;;;;;;;15.55;100;94727.62;;;;
2019/07/29 05:37:56;;;;;;;10.3;9.3;;;;;;;15.55;100;94727.62;;;;
2019/07/29 05:38:57;;;;;;;10.3;9.3;;;;;;;15.55;100;94727.62;;;;
2019/07/29 05:39:58;;;;;;;10.3;9.3;;;;;;;15.55;100;94727.62;;;;
2019/07/29 05:40:59;;;;;;;10.3;9.3;;;;;;;15.55;100;94727.62;;;;
2019/07/29 05:42:06;;;;;;;10.3;9.3;;;;;;;15.55;100;94727.62;;;;
2019/07/29 05:43:07;;;;;;;9.500001;8.6;;;;;;;15.6;100;94744.33;;;;
2019/07/29 05:44:08;;;;;;;9.500001;8.6;;;;;;;15.6;100;94744.33;;;;
2019/07/29 05:45:09;;;;;;;9.500001;8.6;;;;;;;15.6;100;94744.33;;;;
2019/07/29 05:46:10;;;;;;;9.500001;8.6;;;;;;;15.6;100;94744.33;;;;
2019/07/29 05:47:12;;;;;;;9.500001;8.6;;;;;;;15.6;100;94744.33;;;;
2019/07/29 05:48:13;;;;;;;9.500001;8.6;;;;;;;15.6;100;94744.33;;;;
2019/07/29 05:49:14;;;;;;;9.500001;8.6;;;;;;;15.6;100;94744.33;;;;
2019/07/29 05:50:15;;;;;;;9.500001;8.6;;;;;;;15.6;100;94744.33;;;;
2019/07/29 05:51:32;;;;;;;9.500001;8.6;;;;;;;15.6;100;94744.33;;;;
2019/07/29 05:52:33;;;;;;;9.500001;8.6;;;;;;;15.6;100;94744.33;;;;
2019/07/29 05:53:34;;;;;;;10.5;9.299998;;;;;;;15.62;100;94753.57;;;;
2019/07/29 05:54:35;;;;;;;10.5;9.299998;;;;;;;15.62;100;94753.57;;;;
2019/07/29 05:55:36;;;;;;;10.5;9.299998;;;;;;;15.62;100;94753.57;;;;
2019/07/29 05:56:38;;;;;;;10.5;9.299998;;;;;;;15.62;100;94753.57;;;;
2019/07/29 05:57:39;;;;;;;10.5;9.299998;;;;;;;15.62;100;94753.57;;;;
2019/07/29 05:58:40;;;;;;;10.5;9.299998;;;;;;;15.62;100;94753.57;;;;
2019/07/29 05:59:41;;;;;;;10.5;9.299998;;;;;;;15.62;100;94753.57;;;;
2019/07/29 06:00:42;;;;;;;10.5;9.299998;;;;;;;15.62;100;94753.57;;;;
2019/07/29 06:01:46;;;;;;;10.5;9.299998;;;;;;;15.62;100;94753.57;;;;
2019/07/29 06:02:47;;;;;;;10.5;9.299998;;;;;;;15.62;100;94753.57;;;;
2019/07/29 06:03:48;;;;;;;10.7;8.850001;;;;;;;15.72;100;94761.7;;;;
2019/07/29 06:04:49;;;;;;;10.7;8.850001;;;;;;;15.72;100;94761.7;;;;